Time;durP1;ratioP1;P1;durP2;ratioP2;P2;SDS_P1;SDS_P2;PMS_P1;PMS_P2;Temp;Humidity;BMP_temperature;BMP_pressure;BME280_temperature;BME280_humidity;BME280_pressure;Samples;Min_cycle;Max_cycle;Signal;HPM_P1;HPM_P2
2021/10/21 00:00:55;;;;;;;11.32;6.97;;;;;;;9.85;52.06;94547.72;4980931;28;20053;-74
2021/10/21 00:03:20;;;;;;;10.93;7.75;;;;;;;9.97;52.20;94558.69;4987577;28;20022;-75
2021/10/21 00:05:46;;;;;;;10.73;7.25;;;;;;;10.10;52.02;94576.53;4985462;28;20133;-74
2021/10/21 00:08:12;;;;;;;12.95;7.90;;;;;;;9.92;52.26;94553.47;4992212;28;20054;-74
2021/10/21 00:10:40;;;;;;;11.05;7.25;;;;;;;10.08;52.27;94573.38;4977786;28;20053;-74
2021/10/21 00:13:05;;;;;;;10.35;7.35;;;;;;;9.87;51.91;94540.25;4988707;28;20125;-74
2021/10/21 00:15:32;;;;;;;13.13;7.28;;;;;;;10.01;52.39;94565.00;4982522;28;20121;-75
2021/10/21 00:17:57;;;;;;;12.00;7.45;;;;;;;10.08;51.95;94561.94;4980130;28;20592;-76
2021/10/21 00:20:23;;;;;;;11.48;6.85;;;;;;;10.05;51.74;94550.03;4986510;28;20060;-75
2021/10/21 00:22:48;;;;;;;10.93;6.93;;;;;;;9.84;51.79;94540.81;4988411;28;20045;-76
2021/10/21 00:25:14;;;;;;;11.75;7.28;;;;;;;9.76;52.07;94530.88;4990991;28;20574;-75
2021/10/21 00:27:40;;;;;;;8.68;6.05;;;;;;;9.93;51.85;94565.63;4985884;28;20045;-76
2021/10/21 00:30:05;;;;;;;11.57;6.57;;;;;;;9.90;51.81;94555.59;4980613;28;20026;-75
2021/10/21 00:32:31;;;;;;;13.77;8.07;;;;;;;9.87;52.30;94540.25;4984354;28;20041;-75
2021/10/21 00:34:56;;;;;;;12.73;8.35;;;;;;;9.79;52.48;94533.72;4982998;28;20627;-76
2021/10/21 00:37:22;;;;;;;13.23;7.93;;;;;;;9.80;52.16;94529.19;4979168;28;20042;-76
2021/10/21 00:39:47;;;;;;;14.25;8.32;;;;;;;9.79;52.00;94525.75;4984514;28;20514;-74
2021/10/21 00:42:12;;;;;;;12.38;8.00;;;;;;;9.88;52.02;94531.19;4986902;28;20502;-75
2021/10/21 00:44:38;;;;;;;14.90;8.55;;;;;;;9.97;51.80;94550.72;4989403;28;20045;-75
2021/10/21 00:47:04;;;;;;;11.20;8.00;;;;;;;9.78;51.71;94526.81;4979036;28;20071;-74
2021/10/21 00:49:30;;;;;;;11.55;8.18;;;;;;;9.73;51.64;94520.81;4981918;28;20042;-74
2021/10/21 00:51:56;;;;;;;17.38;10.23;;;;;;;9.85;52.45;94539.75;4987642;28;20030;-74
2021/10/21 00:54:22;;;;;;;13.82;8.68;;;;;;;9.70;52.44;94518.72;4981790;28;20032;-74
2021/10/21 00:56:51;;;;;;;17.17;10.38;;;;;;;9.68;52.53;94523.56;4987149;28;20151;-75
2021/10/21 00:59:16;;;;;;;15.65;8.82;;;;;;;9.82;52.14;94537.69;4981736;28;20057;-75
2021/10/21 01:01:42;;;;;;;13.68;7.97;;;;;;;9.71;52.27;94521.09;4975328;28;20178;-75
2021/10/21 01:04:07;;;;;;;13.55;8.93;;;;;;;9.76;51.96;94538.84;4991780;28;20038;-74
2021/10/21 01:06:33;;;;;;;13.30;8.32;;;;;;;9.78;52.69;94518.09;4986683;28;20045;-74
2021/10/21 01:09:02;;;;;;;14.20;8.48;;;;;;;9.75;52.28;94521.31;4983803;28;20151;-73
2021/10/21 01:11:28;;;;;;;14.60;8.45;;;;;;;9.84;51.84;94520.34;4982565;28;20041;-74
2021/10/21 01:13:53;;;;;;;14.43;9.77;;;;;;;9.62;52.23;94496.28;4982122;28;20070;-74
2021/10/21 01:16:19;;;;;;;18.00;9.15;;;;;;;9.66;52.24;94494.63;4990362;28;20188;-74
2021/10/21 01:18:45;;;;;;;14.05;8.38;;;;;;;9.77;52.04;94513.84;4986119;28;20584;-75
2021/10/21 01:21:11;;;;;;;13.50;8.30;;;;;;;9.76;51.56;94510.41;4992233;28;20522;-74
2021/10/21 01:23:38;;;;;;;12.30;7.35;;;;;;;9.78;51.96;94510.13;4982923;28;20046;-74
2021/10/21 01:26:12;;;;;;;12.15;7.78;;;;;;;9.81;51.78;94507.66;4985363;28;20038;-74
2021/10/21 01:28:39;;;;;;;11.07;7.50;;;;;;;9.74;52.11;94506.44;4985466;28;20456;-75
2021/10/21 01:31:05;;;;;;;11.60;6.75;;;;;;;9.54;52.09;94478.34;4979619;28;20061;-76
2021/10/21 01:33:32;;;;;;;9.75;6.35;;;;;;;9.67;51.83;94509.50;4982779;28;20033;-75
2021/10/21 01:35:57;;;;;;;9.80;7.07;;;;;;;9.64;51.99;94510.06;4983858;28;20753;-75
2021/10/21 01:38:23;;;;;;;8.30;6.40;;;;;;;9.64;51.69;94510.06;4984134;28;21129;-75
2021/10/21 01:40:48;;;;;;;10.27;6.78;;;;;;;9.52;51.83;94501.75;4988287;28;20073;-76
2021/10/21 01:43:14;;;;;;;12.13;7.35;;;;;;;9.48;51.92;94484.03;4980881;28;20069;-75
2021/10/21 01:45:40;;;;;;;9.95;6.45;;;;;;;9.61;51.63;94501.88;4970808;28;20542;-75
2021/10/21 01:48:06;;;;;;;11.48;7.55;;;;;;;9.53;51.92;94494.59;4992872;28;20702;-75
2021/10/21 01:50:32;;;;;;;13.82;7.40;;;;;;;9.35;52.14;94481.03;4986158;28;20026;-75
2021/10/21 01:52:58;;;;;;;11.32;7.97;;;;;;;9.45;52.04;94496.81;4988688;28;21224;-76
2021/10/21 01:55:23;;;;;;;10.85;6.47;;;;;;;9.37;52.32;94478.09;4987585;28;20081;-75
2021/10/21 01:57:49;;;;;;;12.55;6.95;;;;;;;9.43;52.36;94492.88;4976725;28;20673;-74
2021/10/21 02:00:17;;;;;;;10.80;7.30;;;;;;;9.47;52.39;94493.88;4987905;28;20031;-76
2021/10/21 02:02:44;;;;;;;12.13;7.97;;;;;;;9.42;52.07;94481.47;4969762;28;20551;-75
2021/10/21 02:05:11;;;;;;;12.10;7.20;;;;;;;9.54;51.74;94496.13;4986369;28;20050;-74
2021/10/21 02:07:36;;;;;;;13.55;8.10;;;;;;;9.46;51.69;94471.03;4982732;28;20030;-73
2021/10/21 02:10:05;;;;;;;15.82;9.05;;;;;;;9.41;51.90;94485.19;4980659;28;20064;-74
2021/10/21 02:12:30;;;;;;;14.63;7.72;;;;;;;9.38;51.72;94480.47;4982870;28;20053;-74
2021/10/21 02:14:56;;;;;;;12.95;7.95;;;;;;;9.32;51.96;94481.63;4987722;28;20121;-74
2021/10/21 02:17:22;;;;;;;13.52;8.95;;;;;;;9.22;52.18;94459.75;4980874;28;20081;-74
2021/10/21 02:19:49;;;;;;;14.93;8.82;;;;;;;9.30;52.40;94481.09;4983466;28;20056;-75
2021/10/21 02:22:14;;;;;;;14.57;9.82;;;;;;;8.91;52.51;94427.50;4982167;28;20049;-75
2021/10/21 02:24:39;;;;;;;16.02;8.60;;;;;;;9.28;52.52;94477.16;4992445;28;20034;-75
2021/10/21 02:27:07;;;;;;;14.75;8.20;;;;;;;9.34;52.68;94476.78;4984042;28;20021;-75
2021/10/21 02:29:33;;;;;;;13.43;7.28;;;;;;;9.29;52.75;94470.78;4968485;28;20560;-75
2021/10/21 02:31:59;;;;;;;13.52;8.10;;;;;;;9.31;52.72;94471.28;4965365;28;20023;-75
2021/10/21 02:34:26;;;;;;;13.23;8.52;;;;;;;9.32;52.39;94473.66;4977820;28;20030;-74
2021/10/21 02:36:51;;;;;;;14.93;9.63;;;;;;;9.24;52.60;94458.34;4987201;28;20530;-74
2021/10/21 02:39:20;;;;;;;14.20;8.68;;;;;;;9.34;52.22;94463.50;4983874;28;20026;-74
2021/10/21 02:41:46;;;;;;;15.57;9.50;;;;;;;9.21;52.44;94458.94;4987465;28;20408;-75
2021/10/21 02:44:11;;;;;;;15.05;7.78;;;;;;;9.16;52.88;94451.06;4991940;28;20042;-74
2021/10/21 02:46:37;;;;;;;14.65;8.57;;;;;;;9.21;52.83;94453.63;4984446;28;20042;-75
2021/10/21 02:49:03;;;;;;;17.77;8.02;;;;;;;9.25;52.66;94459.94;4985155;28;20116;-74
2021/10/21 02:51:29;;;;;;;11.27;7.70;;;;;;;9.23;52.84;94456.00;4985238;28;20384;-74
2021/10/21 02:53:54;;;;;;;14.20;7.93;;;;;;;9.11;52.63;94443.16;4983635;28;20034;-75
2021/10/21 02:56:20;;;;;;;9.63;6.88;;;;;;;9.09;52.43;94432.03;4985973;28;20050;-75
2021/10/21 02:58:45;;;;;;;9.80;5.93;;;;;;;9.21;52.18;94444.88;4983805;28;20042;-74
2021/10/21 03:01:11;;;;;;;11.77;6.90;;;;;;;9.31;52.91;94452.69;4984047;28;20053;-74
2021/10/21 03:03:36;;;;;;;8.95;6.15;;;;;;;9.26;52.74;94453.56;4988211;28;20087;-74
2021/10/21 03:06:02;;;;;;;15.63;7.47;;;;;;;9.09;52.82;94424.09;4996635;28;20026;-74
2021/10/21 03:08:27;;;;;;;10.43;6.68;;;;;;;9.08;52.89;94417.19;4985476;28;20038;-74
2021/10/21 03:10:52;;;;;;;8.82;6.40;;;;;;;9.04;52.58;94405.59;4979514;28;20842;-74
2021/10/21 03:13:18;;;;;;;10.75;6.50;;;;;;;9.27;52.67;94452.50;4987888;28;20512;-76
2021/10/21 03:15:43;;;;;;;11.77;7.82;;;;;;;9.28;52.51;94448.75;4986013;28;20038;-75
2021/10/21 03:18:09;;;;;;;13.07;7.28;;;;;;;9.32;52.28;94441.78;4984235;28;20134;-74
2021/10/21 03:20:35;;;;;;;13.32;7.40;;;;;;;9.22;52.18;94444.59;4987455;28;20046;-75
2021/10/21 03:23:02;;;;;;;12.07;6.75;;;;;;;9.26;52.96;94442.94;4992017;28;20042;-75
2021/10/21 03:25:28;;;;;;;13.55;7.72;;;;;;;9.20;52.61;94446.75;4986714;28;20038;-75
2021/10/21 03:27:53;;;;;;;14.40;7.63;;;;;;;9.06;52.30;94427.28;4986934;28;20108;-75
2021/10/21 03:30:19;;;;;;;12.35;7.93;;;;;;;9.17;52.36;94442.03;4983608;28;20133;-76
2021/10/21 03:32:44;;;;;;;13.20;8.43;;;;;;;9.17;52.38;94435.94;4985458;28;20037;-75
2021/10/21 03:35:10;;;;;;;13.25;7.97;;;;;;;9.28;52.07;94443.47;4974630;28;20624;-74
2021/10/21 03:37:37;;;;;;;16.40;9.73;;;;;;;9.21;51.77;94442.22;4983189;28;20053;-75
2021/10/21 03:40:03;;;;;;;13.55;8.93;;;;;;;8.98;51.95;94418.13;4983145;28;20038;-75
2021/10/21 03:42:29;;;;;;;16.92;9.07;;;;;;;9.01;52.26;94424.72;4988517;28;20029;-75
2021/10/21 03:44:56;;;;;;;13.65;8.43;;;;;;;8.93;52.15;94409.44;4987749;28;20036;-75
2021/10/21 03:47:22;;;;;;;10.05;7.60;;;;;;;9.07;52.23;94430.75;4987565;28;20149;-75
2021/10/21 03:49:50;;;;;;;13.35;8.00;;;;;;;9.04;52.14;94426.81;4982437;28;20042;-75
2021/10/21 03:52:16;;;;;;;16.40;8.32;;;;;;;9.03;52.42;94427.88;4984372;28;20497;-75
2021/10/21 03:54:41;;;;;;;13.52;8.23;;;;;;;9.00;52.50;94425.78;4985627;28;20084;-75
2021/10/21 03:57:07;;;;;;;16.42;8.85;;;;;;;8.92;52.31;94413.19;4929025;28;20111;-76
2021/10/21 03:59:32;;;;;;;14.15;8.23;;;;;;;8.95;52.32;94417.94;4943908;28;20132;-75
2021/10/21 04:01:58;;;;;;;13.60;8.18;;;;;;;8.91;52.54;94411.59;4941586;28;20043;-76
2021/10/21 04:04:23;;;;;;;16.13;9.48;;;;;;;8.89;52.77;94416.41;4946183;28;20894;-75
2021/10/21 04:06:49;;;;;;;16.63;9.90;;;;;;;8.82;52.78;94406.16;4941920;28;20054;-76
2021/10/21 04:09:14;;;;;;;18.05;9.93;;;;;;;8.92;52.93;94418.47;4929997;28;20035;-76
2021/10/21 04:11:40;;;;;;;16.55;9.43;;;;;;;8.78;52.65;94391.09;4940266;28;20422;-75
2021/10/21 04:14:05;;;;;;;24.20;10.68;;;;;;;8.90;52.70;94410.81;4947340;28;20035;-75
2021/10/21 04:16:32;;;;;;;16.80;10.27;;;;;;;8.90;52.79;94399.44;4947355;28;20043;-75
2021/10/21 04:18:57;;;;;;;18.80;10.10;;;;;;;8.97;52.30;94405.94;4946384;28;20102;-75
2021/10/21 04:21:23;;;;;;;20.50;10.40;;;;;;;8.95;52.23;94392.16;4948136;28;20593;-75
2021/10/21 04:23:49;;;;;;;16.73;10.70;;;;;;;8.96;52.60;94398.25;4946023;28;20555;-75
2021/10/21 04:26:16;;;;;;;16.67;10.50;;;;;;;8.87;52.47;94390.16;4939538;28;20063;-76
2021/10/21 04:28:43;;;;;;;17.80;9.20;;;;;;;9.01;51.89;94395.53;4939890;28;20089;-76
2021/10/21 04:31:08;;;;;;;19.13;10.23;;;;;;;8.88;52.15;94398.91;4946931;28;20042;-75
2021/10/21 04:33:34;;;;;;;20.00;11.10;;;;;;;8.77;52.35;94384.22;4945295;28;20477;-75
2021/10/21 04:35:59;;;;;;;20.33;11.43;;;;;;;8.88;51.91;94377.69;4947389;28;20034;-76
2021/10/21 04:38:25;;;;;;;20.35;12.55;;;;;;;8.90;52.09;94396.78;4939899;28;20050;-75
2021/10/21 04:40:50;;;;;;;21.02;12.02;;;;;;;8.79;52.22;94387.38;4949263;28;20078;-76
2021/10/21 04:43:15;;;;;;;22.05;11.88;;;;;;;8.84;52.17;94389.97;4950347;28;20039;-75
2021/10/21 04:45:41;;;;;;;20.35;11.00;;;;;;;8.57;52.26;94358.78;4944432;28;20037;-75
2021/10/21 04:48:07;;;;;;;20.65;12.70;;;;;;;8.70;52.69;94378.50;4946432;28;20027;-74
2021/10/21 04:50:34;;;;;;;24.42;12.50;;;;;;;8.71;52.73;94369.44;4948260;28;20039;-74
2021/10/21 04:53:00;;;;;;;17.08;11.50;;;;;;;8.66;52.88;94378.25;4943571;28;20031;-74
2021/10/21 04:55:26;;;;;;;17.02;10.77;;;;;;;8.71;52.70;94380.06;4959747;28;20374;-74
2021/10/21 04:57:52;;;;;;;22.58;11.80;;;;;;;8.90;52.89;94389.59;4965925;28;20500;-74
2021/10/21 05:00:19;;;;;;;21.65;11.25;;;;;;;8.68;53.02;94373.47;4984084;28;20068;-73
2021/10/21 05:02:45;;;;;;;18.20;11.10;;;;;;;8.79;52.98;94388.19;4981406;28;20761;-74
2021/10/21 05:05:11;;;;;;;18.90;9.73;;;;;;;8.65;52.84;94375.91;4981398;28;20034;-73
2021/10/21 05:07:37;;;;;;;19.58;11.48;;;;;;;8.68;52.82;94376.13;4983275;28;20412;-73
2021/10/21 05:10:03;;;;;;;18.08;10.23;;;;;;;8.74;52.97;94387.47;4981488;28;20540;-74
2021/10/21 05:12:28;;;;;;;18.70;10.30;;;;;;;8.61;53.23;94364.31;4987690;28;20045;-74
2021/10/21 05:14:56;;;;;;;16.17;10.55;;;;;;;8.73;53.20;94383.22;4982359;28;20034;-74
2021/10/21 05:17:24;;;;;;;16.63;9.75;;;;;;;8.79;53.58;94388.19;4986806;28;20043;-73
2021/10/21 05:19:50;;;;;;;15.05;9.27;;;;;;;8.85;53.25;94386.25;4998127;28;21063;-74
2021/10/21 05:22:16;;;;;;;15.68;9.20;;;;;;;8.88;53.45;94383.00;4981834;28;20141;-74
2021/10/21 05:24:42;;;;;;;16.30;9.10;;;;;;;8.86;53.03;94355.97;4980407;28;20095;-75
2021/10/21 05:27:08;;;;;;;16.98;9.40;;;;;;;8.98;53.47;94383.66;4989067;28;20497;-75
2021/10/21 05:29:35;;;;;;;14.82;9.10;;;;;;;8.97;53.48;94389.22;4983096;28;20730;-75
2021/10/21 05:32:05;;;;;;;18.92;9.55;;;;;;;8.82;53.74;94365.56;4982063;28;20041;-75
2021/10/21 05:34:31;;;;;;;16.60;9.27;;;;;;;8.78;53.96;94348.66;4982318;28;20554;-75
2021/10/21 05:36:57;;;;;;;16.98;10.65;;;;;;;8.84;53.97;94360.78;4986636;28;20050;-75
2021/10/21 05:39:22;;;;;;;17.92;10.40;;;;;;;8.90;53.90;94367.59;4985087;28;20030;-75
2021/10/21 05:41:48;;;;;;;18.27;9.98;;;;;;;8.96;54.23;94374.38;4990615;28;20038;-74
2021/10/21 05:44:14;;;;;;;18.88;11.70;;;;;;;8.99;54.33;94382.56;4987988;28;20069;-74
2021/10/21 05:46:39;;;;;;;20.48;12.20;;;;;;;9.16;54.65;94363.47;4978374;28;20137;-75
2021/10/21 05:49:04;;;;;;;18.77;10.95;;;;;;;9.07;54.57;94362.53;4985592;28;20031;-75
2021/10/21 05:51:30;;;;;;;24.33;12.23;;;;;;;9.21;54.32;94374.00;4984298;28;20029;-74
2021/10/21 05:53:56;;;;;;;24.92;13.98;;;;;;;9.11;54.50;94336.22;4983322;28;20065;-74
2021/10/21 05:56:22;;;;;;;20.40;12.70;;;;;;;9.38;55.12;94362.88;4984760;28;20650;-76
2021/10/21 05:58:47;;;;;;;22.73;13.70;;;;;;;9.35;54.86;94353.59;4981717;28;20042;-74
2021/10/21 06:01:13;;;;;;;27.05;15.48;;;;;;;9.56;54.63;94372.63;4986269;28;20097;-74
2021/10/21 06:03:38;;;;;;;28.65;15.60;;;;;;;9.63;55.26;94364.28;4975246;28;20829;-74
2021/10/21 06:06:05;;;;;;;28.85;17.60;;;;;;;9.62;55.60;94366.16;4991209;28;20148;-74
2021/10/21 06:08:31;;;;;;;31.88;17.85;;;;;;;9.70;55.36;94364.69;4982697;28;20034;-75
2021/10/21 06:10:57;;;;;;;29.73;17.77;;;;;;;9.71;55.76;94366.25;4985333;28;20034;-74
2021/10/21 06:13:23;;;;;;;31.58;17.60;;;;;;;9.77;55.58;94371.19;4989414;28;20404;-74
2021/10/21 06:15:48;;;;;;;34.00;17.92;;;;;;;9.89;55.43;94366.16;4986058;28;20038;-75
2021/10/21 06:18:14;;;;;;;35.97;19.40;;;;;;;10.01;55.33;94370.22;4977427;28;20132;-74
2021/10/21 06:20:42;;;;;;;28.55;18.67;;;;;;;10.03;55.24;94352.88;4987685;28;21393;-76
2021/10/21 06:23:08;;;;;;;31.52;18.98;;;;;;;10.12;55.58;94372.34;4983286;28;20033;-74
2021/10/21 06:25:33;;;;;;;38.47;20.17;;;;;;;10.04;55.98;94351.81;4984648;28;20092;-75
2021/10/21 06:27:59;;;;;;;36.30;18.10;;;;;;;9.98;55.66;94318.44;4983762;28;20054;-75
2021/10/21 06:30:24;;;;;;;34.70;18.05;;;;;;;10.19;56.22;94356.03;4987294;28;20535;-76
2021/10/21 06:32:50;;;;;;;34.55;19.48;;;;;;;10.25;55.94;94360.16;4989111;28;20117;-75
2021/10/21 06:35:16;;;;;;;35.35;18.95;;;;;;;10.29;55.55;94345.97;4986472;28;20100;-75
2021/10/21 06:37:46;;;;;;;34.58;19.63;;;;;;;10.22;56.00;94334.94;4983739;28;20184;-76
2021/10/21 06:40:11;;;;;;;31.73;20.30;;;;;;;10.25;55.94;94337.03;4986950;28;20389;-75
2021/10/21 06:42:37;;;;;;;36.22;21.10;;;;;;;10.46;55.90;94344.59;4985403;28;20030;-76
2021/10/21 06:45:03;;;;;;;31.88;19.02;;;;;;;10.58;55.29;94358.16;4987219;28;20033;-75
2021/10/21 06:47:29;;;;;;;29.38;18.50;;;;;;;10.66;55.30;94360.88;4983396;28;20038;-75
2021/10/21 06:49:54;;;;;;;30.17;18.23;;;;;;;10.82;54.52;94358.69;4982648;28;20057;-74
2021/10/21 06:52:20;;;;;;;31.70;19.70;;;;;;;10.80;54.58;94358.22;4987047;28;20402;-74
2021/10/21 06:54:46;;;;;;;30.33;18.48;;;;;;;10.70;54.69;94351.25;4986358;28;20484;-73
2021/10/21 06:57:12;;;;;;;34.70;17.98;;;;;;;10.67;54.24;94335.06;4988187;28;20032;-75
2021/10/21 06:59:37;;;;;;;30.77;19.70;;;;;;;10.78;54.53;94359.59;4986997;28;20038;-76
2021/10/21 07:02:03;;;;;;;37.17;20.48;;;;;;;10.63;54.90;94345.53;4986566;28;20049;-75
2021/10/21 07:04:29;;;;;;;37.53;21.38;;;;;;;10.85;54.44;94366.06;4983642;28;20041;-75
2021/10/21 07:06:57;;;;;;;33.10;19.55;;;;;;;10.98;54.70;94359.13;4987489;28;20259;-76
2021/10/21 07:09:22;;;;;;;32.67;20.85;;;;;;;10.92;54.68;94353.13;4979877;28;20030;-75
2021/10/21 07:11:47;;;;;;;34.15;18.80;;;;;;;11.01;54.38;94353.97;4977481;28;20041;-76
2021/10/21 07:14:13;;;;;;;30.77;19.75;;;;;;;11.10;54.20;94354.81;4987092;28;20034;-75
2021/10/21 07:16:38;;;;;;;29.98;17.40;;;;;;;11.26;53.57;94351.78;4983867;28;20500;-75
2021/10/21 07:19:03;;;;;;;36.40;20.60;;;;;;;11.27;53.58;94353.38;4986619;28;20504;-74
2021/10/21 07:21:29;;;;;;;32.03;19.48;;;;;;;11.32;53.12;94350.59;4982595;28;20444;-74
2021/10/21 07:23:55;;;;;;;32.13;20.73;;;;;;;10.98;54.55;94351.94;4977632;28;20030;-75
2021/10/21 07:26:20;;;;;;;33.25;19.98;;;;;;;10.76;54.84;94333.25;4978355;28;20155;-74
2021/10/21 07:28:45;;;;;;;41.60;21.65;;;;;;;11.12;54.38;94352.66;4989503;28;20042;-75
2021/10/21 07:31:17;;;;;;;38.25;21.13;;;;;;;11.18;53.86;94337.34;4976824;28;20124;-74
2021/10/21 07:33:42;;;;;;;36.15;21.02;;;;;;;11.31;53.69;94349.00;4986563;28;20026;-75
2021/10/21 07:36:08;;;;;;;34.05;20.67;;;;;;;11.29;53.68;94329.91;4988212;28;20030;-75
2021/10/21 07:38:33;;;;;;;32.95;20.20;;;;;;;11.34;53.45;94337.75;4987952;28;20038;-75
2021/10/21 07:40:59;;;;;;;33.10;20.23;;;;;;;11.29;53.73;94335.22;4987391;28;20073;-76
2021/10/21 07:43:24;;;;;;;39.95;22.52;;;;;;;11.04;54.15;94299.38;4988329;28;20042;-75
2021/10/21 07:45:50;;;;;;;33.95;21.30;;;;;;;11.27;54.04;94332.06;4986347;28;20068;-75
2021/10/21 07:48:15;;;;;;;39.28;21.90;;;;;;;11.30;53.38;94310.94;4988147;28;20392;-74
2021/10/21 07:50:41;;;;;;;37.47;20.83;;;;;;;11.34;54.09;94319.91;4984518;28;20137;-75
2021/10/21 07:53:07;;;;;;;30.80;19.92;;;;;;;11.41;54.05;94328.25;4986570;28;20388;-74
2021/10/21 07:55:37;;;;;;;35.65;21.80;;;;;;;11.46;53.93;94303.34;4985544;28;21158;-77
2021/10/21 07:58:03;;;;;;;40.05;20.92;;;;;;;11.45;54.25;94323.06;4987773;28;20065;-75
2021/10/21 08:00:29;;;;;;;34.20;20.70;;;;;;;11.48;54.06;94317.16;4992456;28;20057;-74
2021/10/21 08:02:55;;;;;;;29.85;19.55;;;;;;;11.69;53.89;94312.88;4987322;28;20105;-75
2021/10/21 08:05:21;;;;;;;32.47;20.70;;;;;;;11.55;53.43;94294.34;4987321;28;20041;-75
2021/10/21 08:07:47;;;;;;;33.95;20.85;;;;;;;11.67;52.98;94288.44;4988956;28;20160;-75
2021/10/21 08:10:14;;;;;;;33.78;20.52;;;;;;;12.01;52.40;94303.75;4986333;28;20049;-75
2021/10/21 08:12:40;;;;;;;39.92;20.85;;;;;;;12.02;52.46;94314.13;4986281;28;20030;-75
2021/10/21 08:15:08;;;;;;;31.95;19.52;;;;;;;11.75;52.95;94298.31;4984954;28;20026;-75
2021/10/21 08:17:34;;;;;;;30.90;18.40;;;;;;;11.76;52.64;94285.78;4991357;28;20037;-76
2021/10/21 08:19:59;;;;;;;33.97;19.73;;;;;;;12.05;52.69;94302.03;4983662;28;20049;-76
2021/10/21 08:22:26;;;;;;;39.60;21.40;;;;;;;12.27;52.16;94306.47;4983497;28;21504;-76
2021/10/21 08:24:52;;;;;;;31.33;18.90;;;;;;;12.14;51.82;94281.50;4986401;28;20365;-75
2021/10/21 08:27:18;;;;;;;33.25;18.60;;;;;;;12.42;50.83;94292.66;4987873;28;20121;-74
2021/10/21 08:29:43;;;;;;;26.98;16.52;;;;;;;12.55;51.16;94290.97;4984499;28;20048;-74
2021/10/21 08:32:11;;;;;;;25.73;16.38;;;;;;;12.36;51.38;94291.28;4986117;28;20551;-74
2021/10/21 08:34:37;;;;;;;28.92;16.92;;;;;;;12.34;51.80;94288.13;4987338;28;20193;-75
2021/10/21 08:37:03;;;;;;;25.15;15.18;;;;;;;12.51;51.19;94284.69;4985297;28;20818;-74
2021/10/21 08:39:28;;;;;;;27.10;16.02;;;;;;;12.39;51.18;94277.31;4987046;28;20057;-76
2021/10/21 08:41:53;;;;;;;24.88;15.80;;;;;;;12.27;51.57;94264.56;4985362;28;20113;-76
2021/10/21 08:44:19;;;;;;;27.00;16.30;;;;;;;12.43;51.64;94263.03;4984705;28;20331;-75
2021/10/21 08:46:50;;;;;;;27.48;17.27;;;;;;;12.45;51.65;94273.41;4987414;28;20041;-75
2021/10/21 08:49:15;;;;;;;27.08;16.85;;;;;;;12.52;51.30;94265.69;4985585;28;20042;-75
2021/10/21 08:51:41;;;;;;;27.83;16.33;;;;;;;12.73;50.83;94269.34;4985640;28;20382;-74
2021/10/21 08:54:07;;;;;;;28.15;16.83;;;;;;;12.86;50.89;94265.72;4986715;28;20585;-74
2021/10/21 08:56:32;;;;;;;26.23;16.75;;;;;;;12.86;50.90;94264.91;4985255;28;20049;-75
2021/10/21 08:59:00;;;;;;;30.77;16.83;;;;;;;12.70;50.56;94258.50;4981627;28;20034;-75
2021/10/21 09:01:35;;;;;;;30.08;15.90;;;;;;;12.71;50.85;94258.19;4985471;28;20121;-74
2021/10/21 09:04:48;;;;;;;25.73;16.42;;;;;;;12.72;50.68;94259.75;4978703;28;20038;-75
2021/10/21 09:09:44;;;;;;;30.85;16.48;;;;;;;12.82;50.29;94248.75;4984737;28;20038;-75
2021/10/21 09:12:13;;;;;;;25.08;14.15;;;;;;;13.01;50.07;94251.06;4982590;28;20018;-73
2021/10/21 09:14:44;;;;;;;24.13;13.93;;;;;;;13.10;49.51;94248.41;4987338;28;20042;-74
2021/10/21 09:17:11;;;;;;;21.23;12.68;;;;;;;13.03;49.55;94242.75;4980587;28;20120;-75
2021/10/21 09:19:39;;;;;;;23.95;13.65;;;;;;;13.02;49.72;94236.63;4980666;28;20457;-74
2021/10/21 09:22:07;;;;;;;20.30;12.48;;;;;;;13.15;49.20;94210.84;4985566;28;20042;-74
2021/10/21 09:24:41;;;;;;;23.45;13.73;;;;;;;13.34;49.33;94227.28;4983628;28;20507;-74
2021/10/21 09:27:12;;;;;;;22.65;12.48;;;;;;;13.35;48.95;94218.16;4986585;28;20091;-75
2021/10/21 09:29:38;;;;;;;22.02;13.07;;;;;;;13.21;48.45;94214.91;4985731;28;20538;-75
2021/10/21 09:32:11;;;;;;;20.45;11.20;;;;;;;13.42;49.03;94218.44;4986048;28;20039;-75
2021/10/21 09:34:47;;;;;;;17.63;11.48;;;;;;;13.35;49.01;94220.06;4985576;28;20128;-76
2021/10/21 09:37:15;;;;;;;18.67;12.40;;;;;;;13.49;48.95;94218.75;4983863;28;20038;-74
2021/10/21 09:39:49;;;;;;;20.45;12.90;;;;;;;13.51;48.29;94210.38;4989991;28;20040;-75
2021/10/21 09:42:16;;;;;;;23.17;12.10;;;;;;;13.57;48.60;94196.53;4990767;28;20026;-74
2021/10/21 09:44:42;;;;;;;19.67;11.90;;;;;;;13.72;48.44;94201.38;4993576;28;20049;-75
2021/10/21 09:47:36;;;;;;;19.80;12.25;;;;;;;13.59;48.39;94186.31;4987652;28;20042;-74
2021/10/21 09:50:15;;;;;;;18.60;10.77;;;;;;;13.58;48.56;94191.97;4987189;28;20300;-74
2021/10/21 09:52:40;;;;;;;16.70;10.35;;;;;;;13.75;48.09;94191.91;4986010;28;20038;-74
2021/10/21 09:55:10;;;;;;;17.83;10.73;;;;;;;13.64;47.64;94162.09;4991825;28;20042;-75
2021/10/21 09:57:35;;;;;;;20.42;13.25;;;;;;;13.82;47.88;94183.38;4988037;28;20069;-75
2021/10/21 10:00:07;;;;;;;16.75;10.68;;;;;;;13.97;48.24;94169.44;4987295;28;20116;-75
2021/10/21 10:02:34;;;;;;;17.17;11.25;;;;;;;14.06;47.94;94180.88;4987336;28;20594;-77
2021/10/21 10:05:03;;;;;;;17.17;11.70;;;;;;;13.92;47.93;94172.31;5004002;28;20041;-76
2021/10/21 10:07:29;;;;;;;19.45;12.43;;;;;;;14.16;47.31;94167.09;4988503;28;20042;-75
2021/10/21 10:10:01;;;;;;;17.48;11.50;;;;;;;14.27;47.03;94162.94;4986585;28;20604;-76
2021/10/21 10:12:29;;;;;;;17.23;12.00;;;;;;;14.50;46.36;94142.72;4988595;28;20037;-75
2021/10/21 10:14:56;;;;;;;17.27;11.02;;;;;;;14.50;46.36;94133.91;4988622;28;20518;-75
2021/10/21 10:17:21;;;;;;;15.70;10.23;;;;;;;14.74;46.17;94149.31;4988637;28;20399;-75
2021/10/21 10:19:49;;;;;;;20.88;11.90;;;;;;;14.49;45.76;94143.06;4987702;28;20050;-75
2021/10/21 10:22:27;;;;;;;18.35;11.85;;;;;;;14.43;46.00;94139.78;4987496;28;20058;-75
2021/10/21 10:24:54;;;;;;;19.08;12.77;;;;;;;14.07;46.34;94102.22;4985979;28;20432;-74
2021/10/21 10:27:29;;;;;;;19.38;11.45;;;;;;;14.33;46.49;94126.81;4990342;28;20488;-75
2021/10/21 10:29:59;;;;;;;20.25;12.80;;;;;;;14.27;46.23;94114.78;4986751;28;20381;-76
2021/10/21 10:32:46;;;;;;;19.30;11.73;;;;;;;14.36;46.11;94101.31;4986504;28;20038;-75
2021/10/21 10:35:14;;;;;;;21.35;11.35;;;;;;;14.21;45.17;94073.28;4995308;28;20034;-75
2021/10/21 10:37:48;;;;;;;16.92;10.75;;;;;;;14.58;45.70;94114.34;4988421;28;20052;-74
2021/10/21 10:40:14;;;;;;;22.50;13.52;;;;;;;14.70;45.41;94105.56;4982202;28;20552;-75
2021/10/21 10:42:42;;;;;;;18.75;12.05;;;;;;;14.71;45.73;94112.50;4988900;28;20146;-74
2021/10/21 10:45:12;;;;;;;17.75;11.85;;;;;;;14.66;45.64;94083.25;4991528;28;20455;-74
2021/10/21 10:47:38;;;;;;;17.73;10.77;;;;;;;14.79;45.58;94107.03;4984125;28;20068;-74
2021/10/21 10:50:18;;;;;;;18.25;12.00;;;;;;;14.71;45.69;94101.78;4992917;28;20132;-73
2021/10/21 10:52:55;;;;;;;19.58;11.88;;;;;;;14.65;45.29;94092.38;4987928;28;20042;-73
2021/10/21 10:55:35;;;;;;;18.38;10.75;;;;;;;14.80;44.65;94089.06;4988279;28;20426;-73
2021/10/21 10:58:01;;;;;;;20.52;10.40;;;;;;;14.66;45.11;94088.59;4984203;28;20606;-75
2021/10/21 11:00:40;;;;;;;13.80;9.32;;;;;;;14.76;44.75;94085.50;5002328;28;20373;-73
2021/10/21 11:03:07;;;;;;;15.63;9.52;;;;;;;15.04;43.97;94075.72;5001111;28;20288;-74
2021/10/21 11:05:45;;;;;;;12.35;8.02;;;;;;;14.85;43.79;94075.47;4987370;28;20033;-75
2021/10/21 11:08:11;;;;;;;11.13;7.30;;;;;;;14.89;43.00;94071.00;4987824;28;20285;-75
2021/10/21 11:10:38;;;;;;;16.58;8.85;;;;;;;14.85;43.81;94070.13;4986228;28;20038;-76
2021/10/21 11:13:33;;;;;;;14.45;10.15;;;;;;;14.98;43.68;94069.00;4987941;28;20045;-75
2021/10/21 11:15:58;;;;;;;14.85;9.52;;;;;;;15.08;43.01;94041.78;4958930;28;20054;-75
2021/10/21 11:18:48;;;;;;;15.90;9.65;;;;;;;15.31;42.73;94061.63;4986018;28;20041;-74
2021/10/21 11:21:44;;;;;;;13.93;9.45;;;;;;;15.43;42.90;94058.94;4987003;28;20467;-74
2021/10/21 11:24:10;;;;;;;13.52;8.57;;;;;;;15.36;42.67;94050.69;4986032;28;20509;-75
2021/10/21 11:26:36;;;;;;;13.20;9.48;;;;;;;15.46;42.84;94046.78;4988244;28;20041;-75